sensor_id;sensor_type;location;lat;lon;timestamp;P1;durP1;ratioP1;P2;durP2;ratioP2
55172;SDS011;41061;52.822;6.860;2023-05-10T00:01:13;9.50;;;8.20;;
55172;SDS011;41061;52.822;6.860;2023-05-10T00:03:39;9.40;;;7.65;;
55172;SDS011;41061;52.822;6.860;2023-05-10T00:06:05;9.75;;;8.00;;
55172;SDS011;41061;52.822;6.860;2023-05-10T00:08:31;11.35;;;8.07;;
55172;SDS011;41061;52.822;6.860;2023-05-10T00:10:56;11.18;;;8.70;;
55172;SDS011;41061;52.822;6.860;2023-05-10T00:13:22;10.50;;;8.48;;
55172;SDS011;41061;52.822;6.860;2023-05-10T00:15:48;10.25;;;8.65;;
55172;SDS011;41061;52.822;6.860;2023-05-10T00:18:13;14.20;;;8.88;;
55172;SDS011;41061;52.822;6.860;2023-05-10T00:20:39;10.63;;;8.88;;
55172;SDS011;41061;52.822;6.860;2023-05-10T00:23:05;9.70;;;8.60;;
55172;SDS011;41061;52.822;6.860;2023-05-10T00:25:31;8.93;;;8.02;;
55172;SDS011;41061;52.822;6.860;2023-05-10T00:27:56;9.02;;;8.10;;
55172;SDS011;41061;52.822;6.860;2023-05-10T00:30:22;8.85;;;7.95;;
55172;SDS011;41061;52.822;6.860;2023-05-10T00:32:48;11.93;;;8.40;;
55172;SDS011;41061;52.822;6.860;2023-05-10T00:35:15;9.02;;;7.95;;
55172;SDS011;41061;52.822;6.860;2023-05-10T00:37:41;9.77;;;7.90;;
55172;SDS011;41061;52.822;6.860;2023-05-10T00:40:07;9.70;;;8.32;;
55172;SDS011;41061;52.822;6.860;2023-05-10T00:42:33;7.95;;;6.60;;
55172;SDS011;41061;52.822;6.860;2023-05-10T00:44:59;12.35;;;7.13;;
55172;SDS011;41061;52.822;6.860;2023-05-10T00:47:25;10.57;;;7.22;;
55172;SDS011;41061;52.822;6.860;2023-05-10T00:49:51;13.10;;;8.18;;
55172;SDS011;41061;52.822;6.860;2023-05-10T00:52:17;8.88;;;7.57;;
55172;SDS011;41061;52.822;6.860;2023-05-10T00:54:42;12.07;;;8.75;;
55172;SDS011;41061;52.822;6.860;2023-05-10T00:57:08;11.35;;;8.35;;
55172;SDS011;41061;52.822;6.860;2023-05-10T00:59:34;10.55;;;8.65;;
55172;SDS011;41061;52.822;6.860;2023-05-10T01:02:00;10.15;;;8.82;;
55172;SDS011;41061;52.822;6.860;2023-05-10T01:04:26;10.27;;;8.82;;
55172;SDS011;41061;52.822;6.860;2023-05-10T01:06:53;13.13;;;8.73;;
55172;SDS011;41061;52.822;6.860;2023-05-10T01:09:19;12.40;;;9.32;;
55172;SDS011;41061;52.822;6.860;2023-05-10T01:11:46;10.18;;;8.93;;
55172;SDS011;41061;52.822;6.860;2023-05-10T01:14:13;9.77;;;8.40;;
55172;SDS011;41061;52.822;6.860;2023-05-10T01:16:42;11.02;;;8.32;;
55172;SDS011;41061;52.822;6.860;2023-05-10T01:19:29;11.07;;;8.20;;
55172;SDS011;41061;52.822;6.860;2023-05-10T01:41:03;12.98;;;9.15;;
55172;SDS011;41061;52.822;6.860;2023-05-10T01:43:48;10.15;;;8.70;;
55172;SDS011;41061;52.822;6.860;2023-05-10T01:46:33;11.05;;;8.68;;
55172;SDS011;41061;52.822;6.860;2023-05-10T01:49:02;12.27;;;8.57;;
55172;SDS011;41061;52.822;6.860;2023-05-10T01:51:58;13.18;;;8.82;;
55172;SDS011;41061;52.822;6.860;2023-05-10T01:54:24;13.20;;;8.68;;
55172;SDS011;41061;52.822;6.860;2023-05-10T01:56:55;13.50;;;8.82;;
55172;SDS011;41061;52.822;6.860;2023-05-10T01:59:24;10.13;;;7.63;;
55172;SDS011;41061;52.822;6.860;2023-05-10T02:01:57;10.60;;;8.40;;
55172;SDS011;41061;52.822;6.860;2023-05-10T02:04:24;10.02;;;8.23;;
55172;SDS011;41061;52.822;6.860;2023-05-10T02:06:51;11.18;;;8.43;;
55172;SDS011;41061;52.822;6.860;2023-05-10T02:09:19;12.50;;;8.38;;
55172;SDS011;41061;52.822;6.860;2023-05-10T02:11:46;11.18;;;7.35;;
55172;SDS011;41061;52.822;6.860;2023-05-10T02:14:14;11.10;;;7.85;;
55172;SDS011;41061;52.822;6.860;2023-05-10T02:16:41;10.00;;;7.65;;
55172;SDS011;41061;52.822;6.860;2023-05-10T02:19:09;15.85;;;8.10;;
55172;SDS011;41061;52.822;6.860;2023-05-10T02:21:37;11.30;;;8.00;;
55172;SDS011;41061;52.822;6.860;2023-05-10T02:24:05;10.77;;;8.10;;
55172;SDS011;41061;52.822;6.860;2023-05-10T02:26:32;9.98;;;7.72;;
55172;SDS011;41061;52.822;6.860;2023-05-10T02:29:00;10.80;;;7.45;;
55172;SDS011;41061;52.822;6.860;2023-05-10T02:31:28;10.48;;;7.40;;
55172;SDS011;41061;52.822;6.860;2023-05-10T02:33:57;10.68;;;7.18;;
55172;SDS011;41061;52.822;6.860;2023-05-10T02:36:23;11.13;;;7.22;;
55172;SDS011;41061;52.822;6.860;2023-05-10T02:38:52;9.55;;;7.18;;
55172;SDS011;41061;52.822;6.860;2023-05-10T02:41:19;8.30;;;6.05;;
55172;SDS011;41061;52.822;6.860;2023-05-10T02:43:49;10.02;;;6.80;;
55172;SDS011;41061;52.822;6.860;2023-05-10T02:46:17;10.43;;;7.72;;
55172;SDS011;41061;52.822;6.860;2023-05-10T02:48:42;9.82;;;6.90;;
55172;SDS011;41061;52.822;6.860;2023-05-10T02:51:08;10.88;;;7.10;;
55172;SDS011;41061;52.822;6.860;2023-05-10T02:53:38;10.93;;;7.35;;
55172;SDS011;41061;52.822;6.860;2023-05-10T02:56:09;9.82;;;7.18;;
55172;SDS011;41061;52.822;6.860;2023-05-10T02:58:39;11.57;;;7.00;;
55172;SDS011;41061;52.822;6.860;2023-05-10T03:01:05;10.88;;;7.18;;
55172;SDS011;41061;52.822;6.860;2023-05-10T03:03:32;11.00;;;7.38;;
55172;SDS011;41061;52.822;6.860;2023-05-10T03:05:58;11.13;;;7.15;;
55172;SDS011;41061;52.822;6.860;2023-05-10T03:08:24;10.70;;;6.75;;
55172;SDS011;41061;52.822;6.860;2023-05-10T03:11:39;10.18;;;6.82;;
55172;SDS011;41061;52.822;6.860;2023-05-10T03:16:29;9.55;;;6.72;;
55172;SDS011;41061;52.822;6.860;2023-05-10T03:20:03;9.77;;;7.07;;
55172;SDS011;41061;52.822;6.860;2023-05-10T03:22:12;10.18;;;7.15;;
55172;SDS011;41061;52.822;6.860;2023-05-10T03:24:43;9.63;;;7.60;;
55172;SDS011;41061;52.822;6.860;2023-05-10T03:27:10;11.02;;;6.90;;
55172;SDS011;41061;52.822;6.860;2023-05-10T03:29:37;12.90;;;7.32;;
55172;SDS011;41061;52.822;6.860;2023-05-10T03:32:03;11.13;;;6.97;;
55172;SDS011;41061;52.822;6.860;2023-05-10T03:34:30;8.95;;;6.82;;
55172;SDS011;41061;52.822;6.860;2023-05-10T03:36:56;11.02;;;7.40;;
55172;SDS011;41061;52.822;6.860;2023-05-10T03:39:22;11.80;;;7.13;;
55172;SDS011;41061;52.822;6.860;2023-05-10T03:41:48;8.93;;;6.75;;
55172;SDS011;41061;52.822;6.860;2023-05-10T03:44:13;10.15;;;7.10;;
55172;SDS011;41061;52.822;6.860;2023-05-10T03:46:39;9.73;;;6.55;;
55172;SDS011;41061;52.822;6.860;2023-05-10T03:49:05;8.40;;;6.22;;
55172;SDS011;41061;52.822;6.860;2023-05-10T03:51:31;8.40;;;6.13;;
55172;SDS011;41061;52.822;6.860;2023-05-10T03:53:56;9.23;;;6.25;;
55172;SDS011;41061;52.822;6.860;2023-05-10T03:56:22;10.23;;;6.63;;
55172;SDS011;41061;52.822;6.860;2023-05-10T03:58:48;7.93;;;6.22;;
55172;SDS011;41061;52.822;6.860;2023-05-10T04:01:14;8.10;;;6.30;;
55172;SDS011;41061;52.822;6.860;2023-05-10T04:03:39;8.50;;;6.18;;
55172;SDS011;41061;52.822;6.860;2023-05-10T04:06:05;7.82;;;6.13;;
55172;SDS011;41061;52.822;6.860;2023-05-10T04:08:34;6.38;;;4.95;;
55172;SDS011;41061;52.822;6.860;2023-05-10T04:11:06;7.32;;;5.03;;
55172;SDS011;41061;52.822;6.860;2023-05-10T04:13:33;6.22;;;4.60;;
55172;SDS011;41061;52.822;6.860;2023-05-10T04:15:58;5.13;;;4.47;;
55172;SDS011;41061;52.822;6.860;2023-05-10T04:18:24;6.95;;;5.38;;
55172;SDS011;41061;52.822;6.860;2023-05-10T04:20:50;5.93;;;4.82;;
55172;SDS011;41061;52.822;6.860;2023-05-10T04:23:16;7.07;;;5.00;;
55172;SDS011;41061;52.822;6.860;2023-05-10T04:25:42;7.55;;;5.38;;
55172;SDS011;41061;52.822;6.860;2023-05-10T04:28:08;6.35;;;5.32;;
55172;SDS011;41061;52.822;6.860;2023-05-10T04:30:34;7.75;;;5.50;;
55172;SDS011;41061;52.822;6.860;2023-05-10T04:33:00;8.50;;;5.90;;
55172;SDS011;41061;52.822;6.860;2023-05-10T04:35:29;6.88;;;5.70;;
55172;SDS011;41061;52.822;6.860;2023-05-10T04:37:54;8.70;;;6.30;;
55172;SDS011;41061;52.822;6.860;2023-05-10T04:40:20;7.00;;;5.50;;
55172;SDS011;41061;52.822;6.860;2023-05-10T04:42:46;7.68;;;5.90;;
55172;SDS011;41061;52.822;6.860;2023-05-10T04:45:12;8.45;;;5.95;;
55172;SDS011;41061;52.822;6.860;2023-05-10T04:47:39;7.80;;;5.90;;
55172;SDS011;41061;52.822;6.860;2023-05-10T04:50:05;8.68;;;6.28;;
55172;SDS011;41061;52.822;6.860;2023-05-10T04:52:32;7.95;;;6.35;;
55172;SDS011;41061;52.822;6.860;2023-05-10T04:54:58;8.68;;;5.93;;
55172;SDS011;41061;52.822;6.860;2023-05-10T04:57:24;12.05;;;5.50;;
55172;SDS011;41061;52.822;6.860;2023-05-10T04:59:49;9.05;;;6.25;;
55172;SDS011;41061;52.822;6.860;2023-05-10T05:02:15;8.45;;;6.28;;
55172;SDS011;41061;52.822;6.860;2023-05-10T05:04:41;7.43;;;5.97;;
55172;SDS011;41061;52.822;6.860;2023-05-10T05:07:07;8.18;;;5.53;;
55172;SDS011;41061;52.822;6.860;2023-05-10T05:09:33;8.18;;;5.57;;
55172;SDS011;41061;52.822;6.860;2023-05-10T05:11:58;10.40;;;6.13;;
55172;SDS011;41061;52.822;6.860;2023-05-10T05:14:24;11.13;;;6.35;;
55172;SDS011;41061;52.822;6.860;2023-05-10T05:16:53;8.68;;;6.18;;
55172;SDS011;41061;52.822;6.860;2023-05-10T05:19:19;9.02;;;6.43;;
55172;SDS011;41061;52.822;6.860;2023-05-10T05:21:44;8.60;;;6.45;;
55172;SDS011;41061;52.822;6.860;2023-05-10T05:24:10;9.43;;;6.88;;
55172;SDS011;41061;52.822;6.860;2023-05-10T05:26:37;10.15;;;6.78;;
55172;SDS011;41061;52.822;6.860;2023-05-10T05:29:03;11.15;;;7.03;;
55172;SDS011;41061;52.822;6.860;2023-05-10T05:31:29;12.38;;;7.60;;
55172;SDS011;41061;52.822;6.860;2023-05-10T05:33:55;9.82;;;7.00;;
55172;SDS011;41061;52.822;6.860;2023-05-10T05:36:21;13.18;;;7.75;;
55172;SDS011;41061;52.822;6.860;2023-05-10T05:38:47;15.10;;;7.78;;
55172;SDS011;41061;52.822;6.860;2023-05-10T05:41:12;13.48;;;8.27;;
55172;SDS011;41061;52.822;6.860;2023-05-10T05:43:38;11.25;;;7.93;;
55172;SDS011;41061;52.822;6.860;2023-05-10T05:46:04;11.68;;;7.43;;
55172;SDS011;41061;52.822;6.860;2023-05-10T05:48:30;11.10;;;7.30;;
55172;SDS011;41061;52.822;6.860;2023-05-10T05:50:56;11.85;;;8.23;;
55172;SDS011;41061;52.822;6.860;2023-05-10T05:53:22;10.88;;;7.53;;
55172;SDS011;41061;52.822;6.860;2023-05-10T05:55:51;12.32;;;7.30;;
55172;SDS011;41061;52.822;6.860;2023-05-10T05:58:20;11.25;;;7.28;;
55172;SDS011;41061;52.822;6.860;2023-05-10T06:00:46;12.65;;;7.72;;
55172;SDS011;41061;52.822;6.860;2023-05-10T06:03:12;13.23;;;7.13;;
55172;SDS011;41061;52.822;6.860;2023-05-10T06:05:38;11.57;;;7.50;;
55172;SDS011;41061;52.822;6.860;2023-05-10T06:08:04;8.43;;;6.10;;
55172;SDS011;41061;52.822;6.860;2023-05-10T06:10:30;10.35;;;6.28;;
55172;SDS011;41061;52.822;6.860;2023-05-10T06:12:56;9.90;;;6.72;;
55172;SDS011;41061;52.822;6.860;2023-05-10T06:15:21;10.40;;;6.93;;
55172;SDS011;41061;52.822;6.860;2023-05-10T06:17:47;8.82;;;5.88;;
55172;SDS011;41061;52.822;6.860;2023-05-10T06:20:14;11.07;;;6.00;;
55172;SDS011;41061;52.822;6.860;2023-05-10T06:22:40;13.57;;;7.40;;
55172;SDS011;41061;52.822;6.860;2023-05-10T06:25:07;7.97;;;5.47;;
55172;SDS011;41061;52.822;6.860;2023-05-10T06:27:33;9.20;;;6.50;;
55172;SDS011;41061;52.822;6.860;2023-05-10T06:29:59;11.48;;;6.15;;
55172;SDS011;41061;52.822;6.860;2023-05-10T06:32:25;9.90;;;6.05;;
55172;SDS011;41061;52.822;6.860;2023-05-10T06:34:50;11.38;;;6.38;;
55172;SDS011;41061;52.822;6.860;2023-05-10T06:37:17;10.40;;;6.15;;
55172;SDS011;41061;52.822;6.860;2023-05-10T06:39:42;13.80;;;5.55;;
55172;SDS011;41061;52.822;6.860;2023-05-10T06:42:08;9.43;;;5.38;;
55172;SDS011;41061;52.822;6.860;2023-05-10T06:44:34;11.65;;;5.45;;
55172;SDS011;41061;52.822;6.860;2023-05-10T06:46:59;9.95;;;5.35;;
55172;SDS011;41061;52.822;6.860;2023-05-10T06:49:25;7.90;;;5.38;;
55172;SDS011;41061;52.822;6.860;2023-05-10T06:51:51;8.80;;;5.40;;
55172;SDS011;41061;52.822;6.860;2023-05-10T06:54:17;11.05;;;6.30;;
55172;SDS011;41061;52.822;6.860;2023-05-10T06:56:42;11.10;;;6.07;;
55172;SDS011;41061;52.822;6.860;2023-05-10T06:59:08;9.13;;;5.35;;
55172;SDS011;41061;52.822;6.860;2023-05-10T07:01:34;8.82;;;5.15;;
55172;SDS011;41061;52.822;6.860;2023-05-10T07:04:00;12.02;;;6.22;;
55172;SDS011;41061;52.822;6.860;2023-05-10T07:06:25;10.32;;;5.57;;
55172;SDS011;41061;52.822;6.860;2023-05-10T07:08:52;9.32;;;5.32;;
55172;SDS011;41061;52.822;6.860;2023-05-10T07:11:18;9.02;;;5.20;;
55172;SDS011;41061;52.822;6.860;2023-05-10T07:13:43;9.02;;;5.50;;
55172;SDS011;41061;52.822;6.860;2023-05-10T07:16:11;10.35;;;5.25;;
55172;SDS011;41061;52.822;6.860;2023-05-10T07:18:37;12.48;;;5.40;;
55172;SDS011;41061;52.822;6.860;2023-05-10T07:21:02;9.98;;;5.75;;
55172;SDS011;41061;52.822;6.860;2023-05-10T07:23:28;8.68;;;5.10;;
55172;SDS011;41061;52.822;6.860;2023-05-10T07:25:55;10.35;;;5.47;;
55172;SDS011;41061;52.822;6.860;2023-05-10T07:28:22;8.98;;;5.60;;
55172;SDS011;41061;52.822;6.860;2023-05-10T07:30:49;8.93;;;5.13;;
55172;SDS011;41061;52.822;6.860;2023-05-10T07:33:15;8.80;;;4.75;;
55172;SDS011;41061;52.822;6.860;2023-05-10T07:35:41;9.63;;;4.93;;
55172;SDS011;41061;52.822;6.860;2023-05-10T07:38:07;8.45;;;4.70;;
55172;SDS011;41061;52.822;6.860;2023-05-10T07:40:33;6.63;;;4.18;;
55172;SDS011;41061;52.822;6.860;2023-05-10T07:42:59;7.35;;;4.20;;
55172;SDS011;41061;52.822;6.860;2023-05-10T07:45:27;7.65;;;4.00;;
55172;SDS011;41061;52.822;6.860;2023-05-10T07:47:53;7.32;;;4.10;;
55172;SDS011;41061;52.822;6.860;2023-05-10T07:50:19;7.63;;;4.28;;
55172;SDS011;41061;52.822;6.860;2023-05-10T07:52:46;7.05;;;3.65;;
55172;SDS011;41061;52.822;6.860;2023-05-10T07:55:13;5.55;;;4.13;;
55172;SDS011;41061;52.822;6.860;2023-05-10T07:57:38;8.07;;;3.72;;
55172;SDS011;41061;52.822;6.860;2023-05-10T08:00:05;5.47;;;4.22;;
55172;SDS011;41061;52.822;6.860;2023-05-10T08:02:32;6.15;;;3.97;;
55172;SDS011;41061;52.822;6.860;2023-05-10T08:04:59;3.72;;;3.03;;
55172;SDS011;41061;52.822;6.860;2023-05-10T08:07:25;5.40;;;3.33;;
55172;SDS011;41061;52.822;6.860;2023-05-10T08:09:51;5.32;;;4.00;;
55172;SDS011;41061;52.822;6.860;2023-05-10T08:12:16;6.30;;;3.40;;
55172;SDS011;41061;52.822;6.860;2023-05-10T08:14:42;4.68;;;3.10;;
55172;SDS011;41061;52.822;6.860;2023-05-10T08:17:08;5.82;;;3.72;;
55172;SDS011;41061;52.822;6.860;2023-05-10T08:19:34;6.43;;;3.50;;
55172;SDS011;41061;52.822;6.860;2023-05-10T08:21:59;5.05;;;3.08;;
55172;SDS011;41061;52.822;6.860;2023-05-10T08:24:25;6.25;;;3.47;;
55172;SDS011;41061;52.822;6.860;2023-05-10T08:26:51;4.38;;;3.05;;
55172;SDS011;41061;52.822;6.860;2023-05-10T08:29:17;5.07;;;3.08;;
55172;SDS011;41061;52.822;6.860;2023-05-10T08:31:42;6.05;;;3.20;;
55172;SDS011;41061;52.822;6.860;2023-05-10T08:34:08;5.55;;;3.58;;
55172;SDS011;41061;52.822;6.860;2023-05-10T08:36:34;6.65;;;3.85;;
55172;SDS011;41061;52.822;6.860;2023-05-10T08:38:59;5.38;;;3.70;;
55172;SDS011;41061;52.822;6.860;2023-05-10T08:41:25;4.28;;;3.50;;
55172;SDS011;41061;52.822;6.860;2023-05-10T08:43:54;5.65;;;3.70;;
55172;SDS011;41061;52.822;6.860;2023-05-10T08:46:20;5.65;;;3.15;;
55172;SDS011;41061;52.822;6.860;2023-05-10T08:48:48;5.53;;;2.88;;
55172;SDS011;41061;52.822;6.860;2023-05-10T08:51:17;5.75;;;3.05;;
55172;SDS011;41061;52.822;6.860;2023-05-10T08:53:44;4.80;;;3.10;;
55172;SDS011;41061;52.822;6.860;2023-05-10T08:56:10;5.13;;;2.85;;
55172;SDS011;41061;52.822;6.860;2023-05-10T08:58:37;4.22;;;2.72;;
55172;SDS011;41061;52.822;6.860;2023-05-10T09:01:03;3.38;;;2.50;;
55172;SDS011;41061;52.822;6.860;2023-05-10T09:03:30;3.13;;;2.42;;
55172;SDS011;41061;52.822;6.860;2023-05-10T09:05:57;2.95;;;2.30;;
55172;SDS011;41061;52.822;6.860;2023-05-10T09:08:23;3.70;;;2.55;;
55172;SDS011;41061;52.822;6.860;2023-05-10T09:10:54;4.03;;;2.47;;
55172;SDS011;41061;52.822;6.860;2023-05-10T09:13:21;4.15;;;2.50;;
55172;SDS011;41061;52.822;6.860;2023-05-10T09:15:47;2.90;;;2.42;;
55172;SDS011;41061;52.822;6.860;2023-05-10T09:18:14;3.92;;;2.40;;
55172;SDS011;41061;52.822;6.860;2023-05-10T09:20:40;5.82;;;3.08;;
55172;SDS011;41061;52.822;6.860;2023-05-10T09:23:06;4.90;;;2.92;;
55172;SDS011;41061;52.822;6.860;2023-05-10T09:25:32;5.05;;;3.80;;
55172;SDS011;41061;52.822;6.860;2023-05-10T09:27:58;10.65;;;4.25;;
55172;SDS011;41061;52.822;6.860;2023-05-10T09:30:25;8.95;;;4.45;;
55172;SDS011;41061;52.822;6.860;2023-05-10T09:32:55;7.00;;;3.72;;
55172;SDS011;41061;52.822;6.860;2023-05-10T09:35:23;7.15;;;3.65;;
55172;SDS011;41061;52.822;6.860;2023-05-10T09:37:50;5.22;;;3.50;;
55172;SDS011;41061;52.822;6.860;2023-05-10T09:40:22;4.45;;;3.30;;
55172;SDS011;41061;52.822;6.860;2023-05-10T09:45:18;4.25;;;3.25;;
55172;SDS011;41061;52.822;6.860;2023-05-10T09:47:43;4.70;;;3.53;;
55172;SDS011;41061;52.822;6.860;2023-05-10T09:50:10;7.13;;;3.92;;
55172;SDS011;41061;52.822;6.860;2023-05-10T09:52:53;7.43;;;3.78;;
55172;SDS011;41061;52.822;6.860;2023-05-10T09:58:05;6.10;;;4.00;;
55172;SDS011;41061;52.822;6.860;2023-05-10T10:00:36;7.60;;;4.07;;
55172;SDS011;41061;52.822;6.860;2023-05-10T10:03:02;5.03;;;3.78;;
55172;SDS011;41061;52.822;6.860;2023-05-10T10:05:32;5.65;;;3.55;;
55172;SDS011;41061;52.822;6.860;2023-05-10T10:08:00;6.13;;;4.18;;
55172;SDS011;41061;52.822;6.860;2023-05-10T10:10:30;6.22;;;3.90;;
55172;SDS011;41061;52.822;6.860;2023-05-10T10:12:57;6.13;;;3.83;;
55172;SDS011;41061;52.822;6.860;2023-05-10T10:15:23;5.97;;;4.10;;
55172;SDS011;41061;52.822;6.860;2023-05-10T10:17:50;9.90;;;4.88;;
55172;SDS011;41061;52.822;6.860;2023-05-10T10:20:17;7.90;;;4.75;;
55172;SDS011;41061;52.822;6.860;2023-05-10T10:22:43;8.07;;;5.32;;
55172;SDS011;41061;52.822;6.860;2023-05-10T10:25:13;9.68;;;5.13;;
55172;SDS011;41061;52.822;6.860;2023-05-10T10:35:53;7.15;;;5.18;;
55172;SDS011;41061;52.822;6.860;2023-05-10T10:38:20;6.78;;;5.18;;
55172;SDS011;41061;52.822;6.860;2023-05-10T10:40:47;7.00;;;5.18;;
55172;SDS011;41061;52.822;6.860;2023-05-10T10:43:23;9.93;;;6.28;;
55172;SDS011;41061;52.822;6.860;2023-05-10T10:48:34;7.25;;;5.88;;
55172;SDS011;41061;52.822;6.860;2023-05-10T10:51:00;6.80;;;5.22;;
55172;SDS011;41061;52.822;6.860;2023-05-10T10:53:27;7.38;;;5.38;;
55172;SDS011;41061;52.822;6.860;2023-05-10T10:56:02;8.32;;;5.30;;
55172;SDS011;41061;52.822;6.860;2023-05-10T10:58:32;6.38;;;5.15;;
55172;SDS011;41061;52.822;6.860;2023-05-10T11:03:41;7.32;;;5.25;;
55172;SDS011;41061;52.822;6.860;2023-05-10T11:06:40;10.05;;;5.82;;
55172;SDS011;41061;52.822;6.860;2023-05-10T11:09:07;8.18;;;5.38;;
55172;SDS011;41061;52.822;6.860;2023-05-10T11:11:35;7.70;;;6.18;;
55172;SDS011;41061;52.822;6.860;2023-05-10T11:14:05;9.55;;;5.82;;
55172;SDS011;41061;52.822;6.860;2023-05-10T11:16:50;10.40;;;6.13;;
55172;SDS011;41061;52.822;6.860;2023-05-10T11:19:16;7.30;;;5.88;;
55172;SDS011;41061;52.822;6.860;2023-05-10T11:24:13;6.95;;;5.30;;
55172;SDS011;41061;52.822;6.860;2023-05-10T11:26:41;7.45;;;5.70;;
55172;SDS011;41061;52.822;6.860;2023-05-10T11:29:07;8.80;;;5.53;;
55172;SDS011;41061;52.822;6.860;2023-05-10T11:31:33;6.78;;;5.57;;
55172;SDS011;41061;52.822;6.860;2023-05-10T11:33:59;9.73;;;5.80;;
55172;SDS011;41061;52.822;6.860;2023-05-10T11:36:32;7.32;;;5.68;;
55172;SDS011;41061;52.822;6.860;2023-05-10T11:38:59;8.48;;;6.18;;
55172;SDS011;41061;52.822;6.860;2023-05-10T11:41:25;7.20;;;5.57;;
55172;SDS011;41061;52.822;6.860;2023-05-10T11:43:53;6.43;;;5.05;;
55172;SDS011;41061;52.822;6.860;2023-05-10T11:46:20;7.32;;;5.20;;
55172;SDS011;41061;52.822;6.860;2023-05-10T11:48:49;8.02;;;4.75;;
55172;SDS011;41061;52.822;6.860;2023-05-10T11:51:19;7.60;;;4.93;;
55172;SDS011;41061;52.822;6.860;2023-05-10T11:53:46;5.13;;;4.20;;
55172;SDS011;41061;52.822;6.860;2023-05-10T11:56:11;9.43;;;4.45;;
55172;SDS011;41061;52.822;6.860;2023-05-10T11:58:38;5.72;;;4.65;;
55172;SDS011;41061;52.822;6.860;2023-05-10T12:01:05;4.72;;;3.90;;
55172;SDS011;41061;52.822;6.860;2023-05-10T12:03:33;7.72;;;4.50;;
55172;SDS011;41061;52.822;6.860;2023-05-10T12:05:59;4.88;;;3.70;;
55172;SDS011;41061;52.822;6.860;2023-05-10T12:08:26;5.07;;;4.25;;
55172;SDS011;41061;52.822;6.860;2023-05-10T12:10:53;5.88;;;3.75;;
55172;SDS011;41061;52.822;6.860;2023-05-10T12:13:29;5.35;;;4.10;;
55172;SDS011;41061;52.822;6.860;2023-05-10T12:15:58;5.10;;;4.32;;
55172;SDS011;41061;52.822;6.860;2023-05-10T12:18:25;5.10;;;3.97;;
55172;SDS011;41061;52.822;6.860;2023-05-10T12:20:51;6.53;;;4.10;;
55172;SDS011;41061;52.822;6.860;2023-05-10T12:23:18;7.18;;;4.40;;
55172;SDS011;41061;52.822;6.860;2023-05-10T12:25:45;4.38;;;3.60;;
55172;SDS011;41061;52.822;6.860;2023-05-10T12:28:11;6.35;;;4.13;;
55172;SDS011;41061;52.822;6.860;2023-05-10T12:30:37;7.00;;;4.47;;
55172;SDS011;41061;52.822;6.860;2023-05-10T12:33:08;5.78;;;4.63;;
55172;SDS011;41061;52.822;6.860;2023-05-10T12:35:43;7.13;;;5.22;;
55172;SDS011;41061;52.822;6.860;2023-05-10T12:38:25;6.97;;;5.05;;
55172;SDS011;41061;52.822;6.860;2023-05-10T12:40:57;7.75;;;4.45;;
55172;SDS011;41061;52.822;6.860;2023-05-10T12:43:24;6.50;;;4.65;;
55172;SDS011;41061;52.822;6.860;2023-05-10T12:45:50;8.88;;;5.25;;
55172;SDS011;41061;52.822;6.860;2023-05-10T12:48:15;10.15;;;5.60;;
55172;SDS011;41061;52.822;6.860;2023-05-10T12:50:41;8.30;;;5.63;;
55172;SDS011;41061;52.822;6.860;2023-05-10T12:53:07;10.63;;;5.75;;
55172;SDS011;41061;52.822;6.860;2023-05-10T12:55:33;8.70;;;6.07;;
55172;SDS011;41061;52.822;6.860;2023-05-10T12:57:59;6.78;;;5.20;;
55172;SDS011;41061;52.822;6.860;2023-05-10T13:00:25;6.55;;;5.00;;
55172;SDS011;41061;52.822;6.860;2023-05-10T13:02:51;8.45;;;5.43;;
55172;SDS011;41061;52.822;6.860;2023-05-10T13:05:17;9.32;;;5.53;;
55172;SDS011;41061;52.822;6.860;2023-05-10T13:07:42;7.18;;;5.60;;
55172;SDS011;41061;52.822;6.860;2023-05-10T13:10:09;9.75;;;6.53;;
55172;SDS011;41061;52.822;6.860;2023-05-10T13:12:35;9.23;;;6.05;;
55172;SDS011;41061;52.822;6.860;2023-05-10T13:15:01;8.25;;;6.68;;
55172;SDS011;41061;52.822;6.860;2023-05-10T13:17:28;9.10;;;6.82;;
55172;SDS011;41061;52.822;6.860;2023-05-10T13:19:53;8.57;;;7.00;;
55172;SDS011;41061;52.822;6.860;2023-05-10T13:22:19;10.73;;;7.30;;
55172;SDS011;41061;52.822;6.860;2023-05-10T13:24:45;9.77;;;7.70;;
55172;SDS011;41061;52.822;6.860;2023-05-10T13:27:10;9.00;;;7.18;;
55172;SDS011;41061;52.822;6.860;2023-05-10T13:29:36;10.90;;;7.32;;
55172;SDS011;41061;52.822;6.860;2023-05-10T13:32:02;12.27;;;7.88;;
55172;SDS011;41061;52.822;6.860;2023-05-10T13:34:27;11.00;;;7.70;;
55172;SDS011;41061;52.822;6.860;2023-05-10T13:36:53;11.05;;;7.40;;
55172;SDS011;41061;52.822;6.860;2023-05-10T13:39:20;10.88;;;7.80;;
55172;SDS011;41061;52.822;6.860;2023-05-10T13:41:46;10.35;;;6.63;;
55172;SDS011;41061;52.822;6.860;2023-05-10T13:44:12;9.80;;;7.13;;
55172;SDS011;41061;52.822;6.860;2023-05-10T13:46:40;6.28;;;4.68;;
55172;SDS011;41061;52.822;6.860;2023-05-10T13:49:07;7.63;;;5.03;;
55172;SDS011;41061;52.822;6.860;2023-05-10T13:51:34;6.93;;;5.15;;
55172;SDS011;41061;52.822;6.860;2023-05-10T13:54:00;6.97;;;5.07;;
55172;SDS011;41061;52.822;6.860;2023-05-10T13:56:27;10.52;;;6.00;;
55172;SDS011;41061;52.822;6.860;2023-05-10T13:58:52;8.65;;;5.90;;
55172;SDS011;41061;52.822;6.860;2023-05-10T14:01:18;9.48;;;5.60;;
55172;SDS011;41061;52.822;6.860;2023-05-10T14:03:44;7.97;;;5.40;;
55172;SDS011;41061;52.822;6.860;2023-05-10T14:06:10;8.35;;;5.30;;
55172;SDS011;41061;52.822;6.860;2023-05-10T14:08:35;7.93;;;5.45;;
55172;SDS011;41061;52.822;6.860;2023-05-10T14:11:02;14.77;;;5.50;;
55172;SDS011;41061;52.822;6.860;2023-05-10T14:13:27;8.18;;;5.38;;
55172;SDS011;41061;52.822;6.860;2023-05-10T14:15:53;11.13;;;5.68;;
55172;SDS011;41061;52.822;6.860;2023-05-10T14:18:19;8.50;;;5.55;;
55172;SDS011;41061;52.822;6.860;2023-05-10T14:20:45;8.65;;;5.40;;
55172;SDS011;41061;52.822;6.860;2023-05-10T14:23:11;8.18;;;5.03;;
55172;SDS011;41061;52.822;6.860;2023-05-10T14:25:40;7.47;;;5.15;;
55172;SDS011;41061;52.822;6.860;2023-05-10T14:28:05;10.05;;;5.90;;
55172;SDS011;41061;52.822;6.860;2023-05-10T14:30:32;8.43;;;5.70;;
55172;SDS011;41061;52.822;6.860;2023-05-10T14:32:59;9.02;;;5.45;;
55172;SDS011;41061;52.822;6.860;2023-05-10T14:35:26;8.10;;;5.20;;
55172;SDS011;41061;52.822;6.860;2023-05-10T14:37:53;7.45;;;4.68;;
55172;SDS011;41061;52.822;6.860;2023-05-10T14:40:19;7.45;;;4.20;;
55172;SDS011;41061;52.822;6.860;2023-05-10T14:42:46;7.78;;;4.20;;
55172;SDS011;41061;52.822;6.860;2023-05-10T14:45:14;10.93;;;4.38;;
55172;SDS011;41061;52.822;6.860;2023-05-10T14:47:40;6.55;;;3.72;;
55172;SDS011;41061;52.822;6.860;2023-05-10T14:50:06;9.82;;;4.25;;
55172;SDS011;41061;52.822;6.860;2023-05-10T14:52:32;5.45;;;3.90;;
55172;SDS011;41061;52.822;6.860;2023-05-10T14:54:58;7.05;;;4.32;;
55172;SDS011;41061;52.822;6.860;2023-05-10T14:57:25;6.72;;;4.43;;
55172;SDS011;41061;52.822;6.860;2023-05-10T14:59:51;7.82;;;4.25;;
55172;SDS011;41061;52.822;6.860;2023-05-10T15:02:17;9.75;;;5.13;;
55172;SDS011;41061;52.822;6.860;2023-05-10T15:04:42;7.65;;;4.60;;
55172;SDS011;41061;52.822;6.860;2023-05-10T15:07:08;9.02;;;5.03;;
55172;SDS011;41061;52.822;6.860;2023-05-10T15:09:34;8.52;;;4.85;;
55172;SDS011;41061;52.822;6.860;2023-05-10T15:12:00;8.52;;;4.93;;
55172;SDS011;41061;52.822;6.860;2023-05-10T15:14:25;10.85;;;6.15;;
55172;SDS011;41061;52.822;6.860;2023-05-10T15:16:51;8.20;;;5.38;;
55172;SDS011;41061;52.822;6.860;2023-05-10T15:19:16;8.77;;;6.00;;
55172;SDS011;41061;52.822;6.860;2023-05-10T15:21:42;6.90;;;4.75;;
55172;SDS011;41061;52.822;6.860;2023-05-10T15:24:09;7.18;;;4.95;;
55172;SDS011;41061;52.822;6.860;2023-05-10T15:26:35;9.55;;;5.72;;